sensor_id;sensor_type;location;lat;lon;timestamp;P1;durP1;ratioP1;P2;durP2;ratioP2
30337;SDS011;17143;51.888;5.408;2023-05-10T00:08:54;6.93;;;4.30;;
30337;SDS011;17143;51.888;5.408;2023-05-10T00:23:56;6.23;;;3.97;;
30337;SDS011;17143;51.888;5.408;2023-05-10T00:38:58;7.27;;;4.80;;
30337;SDS011;17143;51.888;5.408;2023-05-10T00:54:00;10.30;;;5.90;;
30337;SDS011;17143;51.888;5.408;2023-05-10T01:09:03;10.87;;;5.73;;
30337;SDS011;17143;51.888;5.408;2023-05-10T01:24:09;11.00;;;5.87;;
30337;SDS011;17143;51.888;5.408;2023-05-10T01:39:30;12.87;;;7.00;;
30337;SDS011;17143;51.888;5.408;2023-05-10T01:54:38;10.03;;;6.33;;
30337;SDS011;17143;51.888;5.408;2023-05-10T02:09:45;9.90;;;5.93;;
30337;SDS011;17143;51.888;5.408;2023-05-10T02:24:49;12.70;;;6.30;;
30337;SDS011;17143;51.888;5.408;2023-05-10T02:39:53;9.97;;;5.93;;
30337;SDS011;17143;51.888;5.408;2023-05-10T02:54:58;11.07;;;6.30;;
30337;SDS011;17143;51.888;5.408;2023-05-10T03:10:04;8.77;;;6.23;;
30337;SDS011;17143;51.888;5.408;2023-05-10T03:25:08;12.40;;;6.83;;
30337;SDS011;17143;51.888;5.408;2023-05-10T03:40:14;9.87;;;6.03;;
30337;SDS011;17143;51.888;5.408;2023-05-10T03:55:18;10.77;;;5.97;;
30337;SDS011;17143;51.888;5.408;2023-05-10T04:10:20;8.63;;;5.00;;
30337;SDS011;17143;51.888;5.408;2023-05-10T04:25:22;9.63;;;5.33;;
30337;SDS011;17143;51.888;5.408;2023-05-10T04:40:24;9.23;;;5.80;;
30337;SDS011;17143;51.888;5.408;2023-05-10T04:55:27;11.00;;;5.57;;
30337;SDS011;17143;51.888;5.408;2023-05-10T05:10:29;11.67;;;6.03;;
30337;SDS011;17143;51.888;5.408;2023-05-10T05:25:31;11.30;;;6.93;;
30337;SDS011;17143;51.888;5.408;2023-05-10T05:40:33;11.60;;;6.93;;
30337;SDS011;17143;51.888;5.408;2023-05-10T05:55:35;11.60;;;6.87;;
30337;SDS011;17143;51.888;5.408;2023-05-10T06:10:37;9.93;;;6.37;;
30337;SDS011;17143;51.888;5.408;2023-05-10T06:25:39;17.60;;;8.03;;
30337;SDS011;17143;51.888;5.408;2023-05-10T06:40:42;14.80;;;8.60;;
30337;SDS011;17143;51.888;5.408;2023-05-10T06:55:44;14.67;;;7.63;;
30337;SDS011;17143;51.888;5.408;2023-05-10T07:10:46;17.70;;;8.87;;
30337;SDS011;17143;51.888;5.408;2023-05-10T07:25:49;16.03;;;8.47;;
30337;SDS011;17143;51.888;5.408;2023-05-10T07:40:51;12.33;;;6.67;;
30337;SDS011;17143;51.888;5.408;2023-05-10T07:55:54;8.50;;;4.67;;
30337;SDS011;17143;51.888;5.408;2023-05-10T08:10:58;7.93;;;3.93;;
30337;SDS011;17143;51.888;5.408;2023-05-10T08:26:01;4.20;;;3.00;;
30337;SDS011;17143;51.888;5.408;2023-05-10T08:41:03;8.77;;;2.93;;
30337;SDS011;17143;51.888;5.408;2023-05-10T08:56:06;5.17;;;2.90;;
30337;SDS011;17143;51.888;5.408;2023-05-10T09:11:09;6.27;;;3.23;;
30337;SDS011;17143;51.888;5.408;2023-05-10T09:26:12;4.33;;;3.10;;
30337;SDS011;17143;51.888;5.408;2023-05-10T09:41:17;4.13;;;2.87;;
30337;SDS011;17143;51.888;5.408;2023-05-10T09:56:33;3.83;;;2.33;;
30337;SDS011;17143;51.888;5.408;2023-05-10T10:11:36;2.33;;;1.53;;
30337;SDS011;17143;51.888;5.408;2023-05-10T10:26:39;3.97;;;1.93;;
30337;SDS011;17143;51.888;5.408;2023-05-10T10:41:50;3.13;;;1.97;;
30337;SDS011;17143;51.888;5.408;2023-05-10T11:12:15;2.73;;;1.87;;
30337;SDS011;17143;51.888;5.408;2023-05-10T11:27:17;5.53;;;3.00;;
30337;SDS011;17143;51.888;5.408;2023-05-10T11:42:20;5.03;;;3.57;;
30337;SDS011;17143;51.888;5.408;2023-05-10T11:57:25;5.03;;;3.23;;
30337;SDS011;17143;51.888;5.408;2023-05-10T12:12:28;3.83;;;3.30;;
30337;SDS011;17143;51.888;5.408;2023-05-10T12:27:37;4.40;;;3.23;;
30337;SDS011;17143;51.888;5.408;2023-05-10T12:42:39;3.80;;;2.77;;
30337;SDS011;17143;51.888;5.408;2023-05-10T12:57:41;5.10;;;3.40;;
30337;SDS011;17143;51.888;5.408;2023-05-10T13:12:43;2.90;;;2.10;;
30337;SDS011;17143;51.888;5.408;2023-05-10T13:27:45;3.73;;;3.27;;
30337;SDS011;17143;51.888;5.408;2023-05-10T13:42:47;4.13;;;3.73;;
30337;SDS011;17143;51.888;5.408;2023-05-10T13:57:49;5.50;;;3.90;;
30337;SDS011;17143;51.888;5.408;2023-05-10T14:12:51;4.57;;;3.47;;
30337;SDS011;17143;51.888;5.408;2023-05-10T14:27:53;5.20;;;2.90;;
30337;SDS011;17143;51.888;5.408;2023-05-10T14:42:55;5.43;;;3.20;;
30337;SDS011;17143;51.888;5.408;2023-05-10T14:57:57;5.13;;;3.13;;
30337;SDS011;17143;51.888;5.408;2023-05-10T15:13:00;5.77;;;3.30;;
30337;SDS011;17143;51.888;5.408;2023-05-10T15:28:02;4.87;;;3.70;;
30337;SDS011;17143;51.888;5.408;2023-05-10T15:43:05;6.43;;;3.90;;
30337;SDS011;17143;51.888;5.408;2023-05-10T15:58:07;7.27;;;3.83;;
30337;SDS011;17143;51.888;5.408;2023-05-10T16:13:09;5.40;;;3.67;;
30337;SDS011;17143;51.888;5.408;2023-05-10T16:28:11;5.90;;;3.33;;
30337;SDS011;17143;51.888;5.408;2023-05-10T16:43:13;5.47;;;3.63;;
30337;SDS011;17143;51.888;5.408;2023-05-10T16:58:15;5.47;;;3.40;;
30337;SDS011;17143;51.888;5.408;2023-05-10T17:13:17;5.87;;;3.43;;
30337;SDS011;17143;51.888;5.408;2023-05-10T17:28:19;4.57;;;2.70;;
30337;SDS011;17143;51.888;5.408;2023-05-10T17:43:21;4.40;;;2.73;;
30337;SDS011;17143;51.888;5.408;2023-05-10T17:58:23;4.53;;;3.20;;
30337;SDS011;17143;51.888;5.408;2023-05-10T18:13:25;4.97;;;3.20;;
30337;SDS011;17143;51.888;5.408;2023-05-10T18:28:27;4.80;;;2.83;;
30337;SDS011;17143;51.888;5.408;2023-05-10T18:43:29;4.93;;;3.07;;
30337;SDS011;17143;51.888;5.408;2023-05-10T18:58:33;4.10;;;2.50;;
30337;SDS011;17143;51.888;5.408;2023-05-10T19:13:35;4.47;;;2.60;;
30337;SDS011;17143;51.888;5.408;2023-05-10T19:28:37;3.70;;;2.63;;
30337;SDS011;17143;51.888;5.408;2023-05-10T19:43:39;4.53;;;2.77;;
30337;SDS011;17143;51.888;5.408;2023-05-10T19:58:41;5.10;;;3.23;;
30337;SDS011;17143;51.888;5.408;2023-05-10T20:13:43;5.07;;;3.27;;
30337;SDS011;17143;51.888;5.408;2023-05-10T20:28:45;4.83;;;3.13;;
30337;SDS011;17143;51.888;5.408;2023-05-10T20:43:47;4.27;;;3.50;;
30337;SDS011;17143;51.888;5.408;2023-05-10T20:58:49;4.67;;;2.93;;
30337;SDS011;17143;51.888;5.408;2023-05-10T21:13:51;5.07;;;3.63;;
30337;SDS011;17143;51.888;5.408;2023-05-10T21:28:53;4.23;;;3.10;;
30337;SDS011;17143;51.888;5.408;2023-05-10T21:43:55;5.13;;;3.47;;
30337;SDS011;17143;51.888;5.408;2023-05-10T21:58:57;4.47;;;3.40;;
30337;SDS011;17143;51.888;5.408;2023-05-10T22:13:59;3.97;;;2.93;;
30337;SDS011;17143;51.888;5.408;2023-05-10T22:29:01;5.03;;;3.50;;
30337;SDS011;17143;51.888;5.408;2023-05-10T22:44:03;5.40;;;3.40;;
30337;SDS011;17143;51.888;5.408;2023-05-10T22:59:05;5.73;;;3.57;;
30337;SDS011;17143;51.888;5.408;2023-05-10T23:14:07;5.40;;;3.80;;
30337;SDS011;17143;51.888;5.408;2023-05-10T23:29:09;5.53;;;3.77;;
30337;SDS011;17143;51.888;5.408;2023-05-10T23:44:11;7.60;;;3.87;;
30337;SDS011;17143;51.888;5.408;2023-05-10T23:59:13;6.13;;;3.97;;
